sensor_id;sensor_type;location;lat;lon;timestamp;pressure;altitude;pressure_sealevel;temperature;humidity
72855;BME280;60991;51.278;22.550;2023-04-07T00:00:00;98801.66;;;6.41;82.77
72855;BME280;60991;51.278;22.550;2023-04-07T00:01:31;98802.72;;;6.51;82.44
72855;BME280;60991;51.278;22.550;2023-04-07T00:03:01;98796.19;;;6.54;82.17
72855;BME280;60991;51.278;22.550;2023-04-07T00:04:31;98795.16;;;6.55;82.02
72855;BME280;60991;51.278;22.550;2023-04-07T00:06:01;98798.38;;;6.57;82.30
72855;BME280;60991;51.278;22.550;2023-04-07T00:07:31;98800.34;;;6.62;81.97
72855;BME280;60991;51.278;22.550;2023-04-07T00:09:02;98792.28;;;6.56;81.92
72855;BME280;60991;51.278;22.550;2023-04-07T00:10:32;98790.38;;;6.64;81.84
72855;BME280;60991;51.278;22.550;2023-04-07T00:12:03;98791.84;;;6.59;82.34
72855;BME280;60991;51.278;22.550;2023-04-07T00:13:33;98791.25;;;6.46;82.59
72855;BME280;60991;51.278;22.550;2023-04-07T00:15:03;98794.50;;;6.59;82.27
72855;BME280;60991;51.278;22.550;2023-04-07T00:16:34;98786.56;;;6.59;81.69
72855;BME280;60991;51.278;22.550;2023-04-07T00:18:04;98790.91;;;6.54;82.40
72855;BME280;60991;51.278;22.550;2023-04-07T00:19:34;98785.28;;;6.50;83.22
72855;BME280;60991;51.278;22.550;2023-04-07T00:21:04;98787.59;;;6.58;82.51
72855;BME280;60991;51.278;22.550;2023-04-07T00:22:35;98787.38;;;6.60;82.30
72855;BME280;60991;51.278;22.550;2023-04-07T00:24:05;98785.09;;;6.64;81.91
72855;BME280;60991;51.278;22.550;2023-04-07T00:25:35;98782.97;;;6.42;83.01
72855;BME280;60991;51.278;22.550;2023-04-07T00:27:05;98785.41;;;6.44;82.85
72855;BME280;60991;51.278;22.550;2023-04-07T00:28:35;98791.13;;;6.52;82.92
72855;BME280;60991;51.278;22.550;2023-04-07T00:30:06;98788.84;;;6.56;82.89
72855;BME280;60991;51.278;22.550;2023-04-07T00:31:36;98786.81;;;6.58;82.32
72855;BME280;60991;51.278;22.550;2023-04-07T00:33:07;98784.53;;;6.62;82.71
72855;BME280;60991;51.278;22.550;2023-04-07T00:34:37;98780.41;;;6.66;82.18
72855;BME280;60991;51.278;22.550;2023-04-07T00:36:07;98783.84;;;6.66;82.73
72855;BME280;60991;51.278;22.550;2023-04-07T00:37:37;98775.81;;;6.73;82.29
72855;BME280;60991;51.278;22.550;2023-04-07T00:39:08;98783.94;;;6.71;82.12
72855;BME280;60991;51.278;22.550;2023-04-07T00:40:38;98781.91;;;6.73;82.42
72855;BME280;60991;51.278;22.550;2023-04-07T00:42:08;98780.88;;;6.74;82.07
72855;BME280;60991;51.278;22.550;2023-04-07T00:43:38;98776.41;;;6.75;82.53
72855;BME280;60991;51.278;22.550;2023-04-07T00:45:09;98784.88;;;6.77;82.26
72855;BME280;60991;51.278;22.550;2023-04-07T00:46:40;98785.69;;;6.77;82.84
72855;BME280;60991;51.278;22.550;2023-04-07T00:48:10;98782.59;;;6.80;83.10
72855;BME280;60991;51.278;22.550;2023-04-07T00:49:40;98782.97;;;6.84;82.57
72855;BME280;60991;51.278;22.550;2023-04-07T00:51:11;98779.50;;;6.83;82.14
72855;BME280;60991;51.278;22.550;2023-04-07T00:52:42;98774.91;;;6.79;82.39
72855;BME280;60991;51.278;22.550;2023-04-07T00:54:12;98773.31;;;6.78;82.77
72855;BME280;60991;51.278;22.550;2023-04-07T00:55:42;98766.31;;;6.83;82.56
72855;BME280;60991;51.278;22.550;2023-04-07T00:57:13;98775.16;;;6.89;82.43
72855;BME280;60991;51.278;22.550;2023-04-07T00:58:43;98768.84;;;6.90;82.21
72855;BME280;60991;51.278;22.550;2023-04-07T01:00:14;98763.09;;;6.93;81.93
72855;BME280;60991;51.278;22.550;2023-04-07T01:01:49;98772.19;;;6.97;82.56
72855;BME280;60991;51.278;22.550;2023-04-07T01:03:26;98764.72;;;6.94;82.74
72855;BME280;60991;51.278;22.550;2023-04-07T01:05:49;98767.81;;;7.03;82.33
72855;BME280;60991;51.278;22.550;2023-04-07T01:07:33;98769.53;;;7.09;81.57
72855;BME280;60991;51.278;22.550;2023-04-07T01:09:07;98771.13;;;7.10;81.71
72855;BME280;60991;51.278;22.550;2023-04-07T01:10:50;98766.31;;;7.07;81.71
72855;BME280;60991;51.278;22.550;2023-04-07T01:12:35;98770.34;;;7.09;81.49
72855;BME280;60991;51.278;22.550;2023-04-07T01:14:10;98763.13;;;7.16;81.18
72855;BME280;60991;51.278;22.550;2023-04-07T01:15:44;98770.00;;;7.17;81.58
72855;BME280;60991;51.278;22.550;2023-04-07T01:17:20;98761.97;;;7.12;81.23
72855;BME280;60991;51.278;22.550;2023-04-07T01:18:56;98761.25;;;7.05;82.03
72855;BME280;60991;51.278;22.550;2023-04-07T01:20:30;98770.34;;;7.09;81.60
72855;BME280;60991;51.278;22.550;2023-04-07T01:22:06;98762.53;;;7.14;81.99
72855;BME280;60991;51.278;22.550;2023-04-07T01:25:59;98757.25;;;7.14;81.66
72855;BME280;60991;51.278;22.550;2023-04-07T01:27:39;98768.28;;;7.23;81.30
72855;BME280;60991;51.278;22.550;2023-04-07T01:29:44;98771.16;;;7.21;81.47
72855;BME280;60991;51.278;22.550;2023-04-07T01:31:16;98766.31;;;7.30;81.39
72855;BME280;60991;51.278;22.550;2023-04-07T01:32:49;98763.09;;;7.28;80.81
72855;BME280;60991;51.278;22.550;2023-04-07T01:34:22;98764.84;;;7.22;81.87
72855;BME280;60991;51.278;22.550;2023-04-07T01:35:57;98767.81;;;7.26;82.00
72855;BME280;60991;51.278;22.550;2023-04-07T01:37:28;98765.28;;;7.31;81.68
72855;BME280;60991;51.278;22.550;2023-04-07T01:39:00;98766.31;;;7.30;81.83
72855;BME280;60991;51.278;22.550;2023-04-07T01:40:32;98766.66;;;7.34;81.25
72855;BME280;60991;51.278;22.550;2023-04-07T01:42:05;98767.56;;;7.27;81.28
72855;BME280;60991;51.278;22.550;2023-04-07T01:43:37;98761.25;;;7.28;81.24
72855;BME280;60991;51.278;22.550;2023-04-07T01:45:09;98763.81;;;7.23;81.75
72855;BME280;60991;51.278;22.550;2023-04-07T01:46:40;98761.84;;;7.30;81.93
72855;BME280;60991;51.278;22.550;2023-04-07T01:48:11;98764.81;;;7.34;81.76
72855;BME280;60991;51.278;22.550;2023-04-07T01:49:42;98768.63;;;7.38;81.35
72855;BME280;60991;51.278;22.550;2023-04-07T01:51:16;98756.44;;;7.37;81.89
72855;BME280;60991;51.278;22.550;2023-04-07T01:52:47;98756.91;;;7.34;81.94
72855;BME280;60991;51.278;22.550;2023-04-07T01:54:17;98757.72;;;7.35;81.78
72855;BME280;60991;51.278;22.550;2023-04-07T01:55:48;98755.97;;;7.40;81.27
72855;BME280;60991;51.278;22.550;2023-04-07T01:57:19;98755.25;;;7.45;81.61
72855;BME280;60991;51.278;22.550;2023-04-07T01:58:49;98756.06;;;7.45;81.42
72855;BME280;60991;51.278;22.550;2023-04-07T02:00:19;98747.91;;;7.47;81.35
72855;BME280;60991;51.278;22.550;2023-04-07T02:01:50;98749.63;;;7.53;81.45
72855;BME280;60991;51.278;22.550;2023-04-07T02:03:30;98751.94;;;7.49;81.73
72855;BME280;60991;51.278;22.550;2023-04-07T02:05:07;98754.13;;;7.52;81.64
72855;BME280;60991;51.278;22.550;2023-04-07T02:06:43;98749.19;;;7.56;81.67
72855;BME280;60991;51.278;22.550;2023-04-07T02:08:16;98746.75;;;7.54;81.28
72855;BME280;60991;51.278;22.550;2023-04-07T02:09:50;98745.38;;;7.52;81.64
72855;BME280;60991;51.278;22.550;2023-04-07T02:11:24;98745.16;;;7.53;82.18
72855;BME280;60991;51.278;22.550;2023-04-07T02:12:57;98741.47;;;7.54;81.52
72855;BME280;60991;51.278;22.550;2023-04-07T02:14:28;98741.03;;;7.57;81.43
72855;BME280;60991;51.278;22.550;2023-04-07T02:15:59;98745.28;;;7.58;82.11
72855;BME280;60991;51.278;22.550;2023-04-07T02:17:31;98747.09;;;7.58;81.79
72855;BME280;60991;51.278;22.550;2023-04-07T02:19:04;98748.47;;;7.60;81.58
72855;BME280;60991;51.278;22.550;2023-04-07T02:20:35;98748.00;;;7.63;82.49
72855;BME280;60991;51.278;22.550;2023-04-07T02:22:07;98751.22;;;7.65;81.79
72855;BME280;60991;51.278;22.550;2023-04-07T02:23:38;98750.41;;;7.65;81.86
72855;BME280;60991;51.278;22.550;2023-04-07T02:25:27;98757.53;;;7.64;81.55
72855;BME280;60991;51.278;22.550;2023-04-07T02:26:58;98751.78;;;7.68;80.94
72855;BME280;60991;51.278;22.550;2023-04-07T02:28:28;98753.84;;;7.65;81.54
72855;BME280;60991;51.278;22.550;2023-04-07T02:29:58;98754.06;;;7.64;81.70
72855;BME280;60991;51.278;22.550;2023-04-07T02:31:28;98747.41;;;7.61;81.84
72855;BME280;60991;51.278;22.550;2023-04-07T02:32:59;98746.16;;;7.64;82.24
72855;BME280;60991;51.278;22.550;2023-04-07T02:34:29;98750.84;;;7.74;81.70
72855;BME280;60991;51.278;22.550;2023-04-07T02:35:59;98744.53;;;7.75;81.58
72855;BME280;60991;51.278;22.550;2023-04-07T02:37:29;98752.22;;;7.76;81.76
72855;BME280;60991;51.278;22.550;2023-04-07T02:39:00;98752.69;;;7.73;82.02
72855;BME280;60991;51.278;22.550;2023-04-07T02:40:30;98755.97;;;7.80;81.54
72855;BME280;60991;51.278;22.550;2023-04-07T02:42:00;98749.66;;;7.81;82.25
72855;BME280;60991;51.278;22.550;2023-04-07T02:43:30;98753.69;;;7.84;81.56
72855;BME280;60991;51.278;22.550;2023-04-07T02:45:01;98754.72;;;7.83;81.74
72855;BME280;60991;51.278;22.550;2023-04-07T02:46:32;98750.69;;;7.80;81.32
72855;BME280;60991;51.278;22.550;2023-04-07T02:48:02;98756.78;;;7.81;81.94
72855;BME280;60991;51.278;22.550;2023-04-07T02:49:32;98756.56;;;7.82;81.63
72855;BME280;60991;51.278;22.550;2023-04-07T02:51:02;98753.09;;;7.82;81.78
72855;BME280;60991;51.278;22.550;2023-04-07T02:52:33;98748.31;;;7.79;81.92
72855;BME280;60991;51.278;22.550;2023-04-07T02:54:03;98751.59;;;7.86;81.42
72855;BME280;60991;51.278;22.550;2023-04-07T02:55:33;98747.22;;;7.91;81.56
72855;BME280;60991;51.278;22.550;2023-04-07T02:57:03;98744.94;;;7.95;81.34
72855;BME280;60991;51.278;22.550;2023-04-07T02:58:33;98750.44;;;7.93;81.72
72855;BME280;60991;51.278;22.550;2023-04-07T03:00:04;98752.63;;;7.96;81.61
72855;BME280;60991;51.278;22.550;2023-04-07T03:01:34;98758.72;;;7.97;80.65
72855;BME280;60991;51.278;22.550;2023-04-07T03:03:05;98756.06;;;7.97;81.18
72855;BME280;60991;51.278;22.550;2023-04-07T03:04:35;98753.72;;;8.00;80.87
72855;BME280;60991;51.278;22.550;2023-04-07T03:06:05;98749.81;;;8.03;80.64
72855;BME280;60991;51.278;22.550;2023-04-07T03:07:35;98756.94;;;8.03;81.14
72855;BME280;60991;51.278;22.550;2023-04-07T03:09:06;98756.72;;;8.04;80.65
72855;BME280;60991;51.278;22.550;2023-04-07T03:10:36;98757.97;;;8.02;81.41
72855;BME280;60991;51.278;22.550;2023-04-07T03:12:06;98750.53;;;7.98;81.17
72855;BME280;60991;51.278;22.550;2023-04-07T03:13:36;98751.31;;;7.99;81.09
72855;BME280;60991;51.278;22.550;2023-04-07T03:15:07;98748.44;;;8.00;81.07
72855;BME280;60991;51.278;22.550;2023-04-07T03:16:37;98753.25;;;8.04;81.11
72855;BME280;60991;51.278;22.550;2023-04-07T03:18:07;98759.13;;;8.06;81.35
72855;BME280;60991;51.278;22.550;2023-04-07T03:19:38;98754.41;;;8.08;81.21
72855;BME280;60991;51.278;22.550;2023-04-07T03:21:08;98756.69;;;8.16;80.15
72855;BME280;60991;51.278;22.550;2023-04-07T03:22:38;98754.50;;;8.13;80.77
72855;BME280;60991;51.278;22.550;2023-04-07T03:24:08;98749.44;;;8.11;80.43
72855;BME280;60991;51.278;22.550;2023-04-07T03:25:39;98749.34;;;8.06;80.77
72855;BME280;60991;51.278;22.550;2023-04-07T03:27:10;98752.09;;;8.11;81.69
72855;BME280;60991;51.278;22.550;2023-04-07T03:28:40;98750.72;;;8.09;81.46
72855;BME280;60991;51.278;22.550;2023-04-07T03:30:10;98744.97;;;8.12;80.60
72855;BME280;60991;51.278;22.550;2023-04-07T03:31:41;98747.69;;;8.17;81.34
72855;BME280;60991;51.278;22.550;2023-04-07T03:33:11;98750.81;;;8.14;80.73
72855;BME280;60991;51.278;22.550;2023-04-07T03:34:41;98741.84;;;8.15;81.41
72855;BME280;60991;51.278;22.550;2023-04-07T03:36:11;98751.94;;;8.18;81.04
72855;BME280;60991;51.278;22.550;2023-04-07T03:37:41;98749.28;;;8.18;81.27
72855;BME280;60991;51.278;22.550;2023-04-07T03:39:12;98754.91;;;8.21;81.00
72855;BME280;60991;51.278;22.550;2023-04-07T03:40:42;98746.50;;;8.24;81.27
72855;BME280;60991;51.278;22.550;2023-04-07T03:42:12;98756.75;;;8.21;81.60
72855;BME280;60991;51.278;22.550;2023-04-07T03:43:42;98751.22;;;8.22;81.29
72855;BME280;60991;51.278;22.550;2023-04-07T03:45:12;98756.28;;;8.24;81.21
72855;BME280;60991;51.278;22.550;2023-04-07T03:46:43;98745.13;;;8.22;81.71
72855;BME280;60991;51.278;22.550;2023-04-07T03:48:13;98752.38;;;8.26;81.37
72855;BME280;60991;51.278;22.550;2023-04-07T03:49:43;98749.47;;;8.28;81.25
72855;BME280;60991;51.278;22.550;2023-04-07T03:51:13;98758.47;;;8.27;81.17
72855;BME280;60991;51.278;22.550;2023-04-07T03:52:44;98757.66;;;8.26;81.36
72855;BME280;60991;51.278;22.550;2023-04-07T03:54:14;98752.84;;;8.23;82.06
72855;BME280;60991;51.278;22.550;2023-04-07T03:55:44;98755.00;;;8.26;81.44
72855;BME280;60991;51.278;22.550;2023-04-07T03:57:15;98752.03;;;8.23;81.78
72855;BME280;60991;51.278;22.550;2023-04-07T03:58:45;98742.66;;;8.15;82.17
72855;BME280;60991;51.278;22.550;2023-04-07T04:00:15;98749.47;;;8.28;81.49
72855;BME280;60991;51.278;22.550;2023-04-07T04:01:45;98743.88;;;8.24;82.16
72855;BME280;60991;51.278;22.550;2023-04-07T04:03:16;98745.47;;;8.25;82.22
72855;BME280;60991;51.278;22.550;2023-04-07T04:04:46;98743.41;;;8.27;81.59
72855;BME280;60991;51.278;22.550;2023-04-07T04:06:16;98746.84;;;8.28;81.92
72855;BME280;60991;51.278;22.550;2023-04-07T04:07:46;98746.16;;;8.32;81.39
72855;BME280;60991;51.278;22.550;2023-04-07T04:09:17;98745.38;;;8.32;81.99
72855;BME280;60991;51.278;22.550;2023-04-07T04:10:47;98744.31;;;8.33;81.75
72855;BME280;60991;51.278;22.550;2023-04-07T04:12:17;98745.94;;;8.34;82.27
72855;BME280;60991;51.278;22.550;2023-04-07T04:13:47;98747.78;;;8.33;81.82
72855;BME280;60991;51.278;22.550;2023-04-07T04:15:17;98754.53;;;8.29;82.51
72855;BME280;60991;51.278;22.550;2023-04-07T04:16:48;98758.09;;;8.35;82.26
72855;BME280;60991;51.278;22.550;2023-04-07T04:18:18;98751.28;;;8.39;82.31
72855;BME280;60991;51.278;22.550;2023-04-07T04:19:48;98753.06;;;8.50;81.49
72855;BME280;60991;51.278;22.550;2023-04-07T04:21:18;98754.91;;;8.50;81.49
72855;BME280;60991;51.278;22.550;2023-04-07T04:22:49;98755.78;;;8.39;82.00
72855;BME280;60991;51.278;22.550;2023-04-07T04:24:19;98753.56;;;8.47;81.60
72855;BME280;60991;51.278;22.550;2023-04-07T04:25:49;98754.91;;;8.50;82.02
72855;BME280;60991;51.278;22.550;2023-04-07T04:27:19;98761.31;;;8.54;81.77
72855;BME280;60991;51.278;22.550;2023-04-07T04:28:49;98759.97;;;8.51;81.74
72855;BME280;60991;51.278;22.550;2023-04-07T04:30:20;98758.03;;;8.47;82.34
72855;BME280;60991;51.278;22.550;2023-04-07T04:31:50;98761.59;;;8.52;82.36
72855;BME280;60991;51.278;22.550;2023-04-07T04:33:20;98768.31;;;8.60;81.71
72855;BME280;60991;51.278;22.550;2023-04-07T04:34:50;98759.00;;;8.57;82.15
72855;BME280;60991;51.278;22.550;2023-04-07T04:36:21;98757.97;;;8.58;82.01
72855;BME280;60991;51.278;22.550;2023-04-07T04:37:51;98759.56;;;8.59;82.33
72855;BME280;60991;51.278;22.550;2023-04-07T04:39:21;98760.03;;;8.56;82.84
72855;BME280;60991;51.278;22.550;2023-04-07T04:40:51;98758.06;;;8.63;82.72
72855;BME280;60991;51.278;22.550;2023-04-07T04:42:21;98763.09;;;8.65;82.47
72855;BME280;60991;51.278;22.550;2023-04-07T04:43:52;98758.72;;;8.71;82.55
72855;BME280;60991;51.278;22.550;2023-04-07T04:45:22;98761.88;;;8.73;82.43
72855;BME280;60991;51.278;22.550;2023-04-07T04:46:52;98759.25;;;8.73;83.26
72855;BME280;60991;51.278;22.550;2023-04-07T04:48:22;98756.59;;;8.73;82.91
72855;BME280;60991;51.278;22.550;2023-04-07T04:49:52;98760.03;;;8.73;83.32
72855;BME280;60991;51.278;22.550;2023-04-07T04:51:23;98762.22;;;8.76;83.31
72855;BME280;60991;51.278;22.550;2023-04-07T04:52:53;98763.50;;;8.74;83.56
72855;BME280;60991;51.278;22.550;2023-04-07T04:54:23;98759.56;;;8.76;83.44
72855;BME280;60991;51.278;22.550;2023-04-07T04:55:53;98766.78;;;8.81;83.30
72855;BME280;60991;51.278;22.550;2023-04-07T04:57:24;98762.22;;;8.76;83.89
72855;BME280;60991;51.278;22.550;2023-04-07T04:58:54;98760.69;;;8.80;83.59
72855;BME280;60991;51.278;22.550;2023-04-07T05:00:24;98757.47;;;8.78;84.04
72855;BME280;60991;51.278;22.550;2023-04-07T05:01:54;98768.63;;;8.80;83.78
72855;BME280;60991;51.278;22.550;2023-04-07T05:03:27;98763.19;;;8.87;83.38
72855;BME280;60991;51.278;22.550;2023-04-07T05:04:57;98768.81;;;8.90;83.33
72855;BME280;60991;51.278;22.550;2023-04-07T05:06:27;98770.16;;;8.93;83.24
72855;BME280;60991;51.278;22.550;2023-04-07T05:07:58;98766.22;;;8.95;83.52
72855;BME280;60991;51.278;22.550;2023-04-07T05:09:28;98767.03;;;8.96;83.63
72855;BME280;60991;51.278;22.550;2023-04-07T05:10:58;98769.44;;;8.97;83.67
72855;BME280;60991;51.278;22.550;2023-04-07T05:12:28;98775.75;;;8.96;83.32
72855;BME280;60991;51.278;22.550;2023-04-07T05:13:58;98770.16;;;8.93;83.84
72855;BME280;60991;51.278;22.550;2023-04-07T05:15:29;98762.53;;;8.96;83.90
72855;BME280;60991;51.278;22.550;2023-04-07T05:16:59;98770.00;;;8.99;83.40
72855;BME280;60991;51.278;22.550;2023-04-07T05:18:29;98761.56;;;9.02;83.14
72855;BME280;60991;51.278;22.550;2023-04-07T05:19:59;98764.47;;;9.01;83.72
72855;BME280;60991;51.278;22.550;2023-04-07T05:21:30;98763.19;;;9.03;83.48
72855;BME280;60991;51.278;22.550;2023-04-07T05:23:00;98760.28;;;9.05;83.54
72855;BME280;60991;51.278;22.550;2023-04-07T05:24:30;98769.75;;;9.01;83.67
72855;BME280;60991;51.278;22.550;2023-04-07T05:26:00;98774.31;;;9.06;83.87
72855;BME280;60991;51.278;22.550;2023-04-07T05:27:31;98766.38;;;9.06;83.80
72855;BME280;60991;51.278;22.550;2023-04-07T05:29:01;98770.78;;;9.00;84.12
72855;BME280;60991;51.278;22.550;2023-04-07T05:30:31;98761.91;;;9.06;83.99
72855;BME280;60991;51.278;22.550;2023-04-07T05:32:03;98771.19;;;9.09;83.71
72855;BME280;60991;51.278;22.550;2023-04-07T05:33:34;98763.00;;;9.10;83.67
72855;BME280;60991;51.278;22.550;2023-04-07T05:35:04;98764.53;;;9.06;83.83
72855;BME280;60991;51.278;22.550;2023-04-07T05:36:34;98769.09;;;9.11;83.79
72855;BME280;60991;51.278;22.550;2023-04-07T05:38:05;98764.59;;;9.11;83.98
72855;BME280;60991;51.278;22.550;2023-04-07T05:39:35;98766.63;;;9.04;83.98
72855;BME280;60991;51.278;22.550;2023-04-07T05:41:05;98768.22;;;9.05;84.22
72855;BME280;60991;51.278;22.550;2023-04-07T05:42:35;98770.41;;;9.08;84.45
72855;BME280;60991;51.278;22.550;2023-04-07T05:44:06;98774.91;;;9.08;84.18
72855;BME280;60991;51.278;22.550;2023-04-07T05:45:36;98772.47;;;9.06;84.12
72855;BME280;60991;51.278;22.550;2023-04-07T05:47:06;98778.63;;;9.12;84.52
72855;BME280;60991;51.278;22.550;2023-04-07T05:48:36;98782.88;;;9.13;84.56
72855;BME280;60991;51.278;22.550;2023-04-07T05:50:07;98779.44;;;9.12;84.11
72855;BME280;60991;51.278;22.550;2023-04-07T05:51:37;98779.19;;;9.14;84.52
72855;BME280;60991;51.278;22.550;2023-04-07T05:53:07;98778.16;;;9.15;84.30
72855;BME280;60991;51.278;22.550;2023-04-07T05:54:38;98777.13;;;9.16;84.75
72855;BME280;60991;51.278;22.550;2023-04-07T05:56:08;98777.13;;;9.16;84.53
72855;BME280;60991;51.278;22.550;2023-04-07T05:57:38;98776.88;;;9.17;84.34
72855;BME280;60991;51.278;22.550;2023-04-07T05:59:08;98782.16;;;9.17;84.46
72855;BME280;60991;51.278;22.550;2023-04-07T06:00:40;98779.59;;;9.22;84.76
72855;BME280;60991;51.278;22.550;2023-04-07T06:02:12;98781.44;;;9.22;84.59
72855;BME280;60991;51.278;22.550;2023-04-07T06:03:42;98781.22;;;9.23;84.75
72855;BME280;60991;51.278;22.550;2023-04-07T06:05:12;98780.97;;;9.25;84.79
72855;BME280;60991;51.278;22.550;2023-04-07T06:06:42;98782.34;;;9.27;84.64
72855;BME280;60991;51.278;22.550;2023-04-07T06:08:13;98790.75;;;9.24;84.93
72855;BME280;60991;51.278;22.550;2023-04-07T06:09:43;98787.53;;;9.22;84.64
72855;BME280;60991;51.278;22.550;2023-04-07T06:11:13;98780.97;;;9.25;85.14
72855;BME280;60991;51.278;22.550;2023-04-07T06:12:43;98792.38;;;9.25;84.77
72855;BME280;60991;51.278;22.550;2023-04-07T06:14:14;98792.38;;;9.25;85.28
72855;BME280;60991;51.278;22.550;2023-04-07T06:15:44;98787.88;;;9.26;85.42
72855;BME280;60991;51.278;22.550;2023-04-07T06:17:14;98788.91;;;9.25;85.30
72855;BME280;60991;51.278;22.550;2023-04-07T06:18:44;98792.38;;;9.25;85.41
72855;BME280;60991;51.278;22.550;2023-04-07T06:20:14;98796.66;;;9.31;85.16
72855;BME280;60991;51.278;22.550;2023-04-07T06:21:45;98787.50;;;9.39;84.57
72855;BME280;60991;51.278;22.550;2023-04-07T06:23:15;98790.72;;;9.41;84.49
72855;BME280;60991;51.278;22.550;2023-04-07T06:24:45;98797.06;;;9.40;84.56
72855;BME280;60991;51.278;22.550;2023-04-07T06:26:15;98797.38;;;9.44;84.72
72855;BME280;60991;51.278;22.550;2023-04-07T06:27:46;98793.94;;;9.43;84.54
72855;BME280;60991;51.278;22.550;2023-04-07T06:29:16;98786.72;;;9.38;85.07
72855;BME280;60991;51.278;22.550;2023-04-07T06:30:46;98804.28;;;9.45;84.88
72855;BME280;60991;51.278;22.550;2023-04-07T06:32:16;98797.16;;;9.45;84.65
72855;BME280;60991;51.278;22.550;2023-04-07T06:33:46;98800.66;;;9.51;84.57
72855;BME280;60991;51.278;22.550;2023-04-07T06:35:17;98802.25;;;9.52;84.76
72855;BME280;60991;51.278;22.550;2023-04-07T06:36:47;98803.38;;;9.56;84.56
72855;BME280;60991;51.278;22.550;2023-04-07T06:38:17;98799.59;;;9.52;84.40
72855;BME280;60991;51.278;22.550;2023-04-07T06:39:48;98799.34;;;9.53;84.72
72855;BME280;60991;51.278;22.550;2023-04-07T06:41:18;98802.25;;;9.52;84.84
72855;BME280;60991;51.278;22.550;2023-04-07T06:42:48;98801.94;;;9.48;84.71
72855;BME280;60991;51.278;22.550;2023-04-07T06:44:18;98803.28;;;9.51;84.68
72855;BME280;60991;51.278;22.550;2023-04-07T06:45:48;98799.34;;;9.53;84.49
72855;BME280;60991;51.278;22.550;2023-04-07T06:47:19;98805.94;;;9.51;84.87
72855;BME280;60991;51.278;22.550;2023-04-07T06:48:49;98801.69;;;9.50;85.30
72855;BME280;60991;51.278;22.550;2023-04-07T06:50:19;98805.78;;;9.57;84.94
72855;BME280;60991;51.278;22.550;2023-04-07T06:51:49;98803.69;;;9.59;85.02
72855;BME280;60991;51.278;22.550;2023-04-07T06:53:19;98807.69;;;9.62;84.93
72855;BME280;60991;51.278;22.550;2023-04-07T06:54:50;98804.72;;;9.58;84.83
72855;BME280;60991;51.278;22.550;2023-04-07T06:56:22;98807.88;;;9.55;84.61
72855;BME280;60991;51.278;22.550;2023-04-07T06:57:53;98809.31;;;9.63;84.65
72855;BME280;60991;51.278;22.550;2023-04-07T06:59:23;98812.19;;;9.61;85.29
72855;BME280;60991;51.278;22.550;2023-04-07T07:00:53;98807.50;;;9.68;84.98
72855;BME280;60991;51.278;22.550;2023-04-07T07:02:23;98803.81;;;9.69;84.79
72855;BME280;60991;51.278;22.550;2023-04-07T07:03:54;98813.91;;;9.72;84.57
72855;BME280;60991;51.278;22.550;2023-04-07T07:05:24;98810.78;;;9.76;84.49
72855;BME280;60991;51.278;22.550;2023-04-07T07:06:54;98814.31;;;9.81;83.79
72855;BME280;60991;51.278;22.550;2023-04-07T07:08:25;98819.22;;;9.72;84.52
72855;BME280;60991;51.278;22.550;2023-04-07T07:09:56;98819.78;;;9.75;84.40
72855;BME280;60991;51.278;22.550;2023-04-07T07:11:26;98820.59;;;9.75;84.56
72855;BME280;60991;51.278;22.550;2023-04-07T07:12:56;98812.16;;;9.78;84.37
72855;BME280;60991;51.278;22.550;2023-04-07T07:14:26;98815.13;;;9.82;84.32
72855;BME280;60991;51.278;22.550;2023-04-07T07:15:57;98816.72;;;9.83;84.39
72855;BME280;60991;51.278;22.550;2023-04-07T07:17:27;98819.06;;;9.79;84.28
72855;BME280;60991;51.278;22.550;2023-04-07T07:18:57;98819.53;;;9.76;84.52
72855;BME280;60991;51.278;22.550;2023-04-07T07:20:27;98829.66;;;9.79;84.30
72855;BME280;60991;51.278;22.550;2023-04-07T07:21:57;98823.06;;;9.82;84.47
72855;BME280;60991;51.278;22.550;2023-04-07T07:23:28;98819.09;;;9.84;84.16
72855;BME280;60991;51.278;22.550;2023-04-07T07:24:58;98822.50;;;9.80;84.53
72855;BME280;60991;51.278;22.550;2023-04-07T07:26:28;98823.78;;;9.77;84.53
72855;BME280;60991;51.278;22.550;2023-04-07T07:27:58;98828.13;;;9.83;84.38
72855;BME280;60991;51.278;22.550;2023-04-07T07:29:29;98837.16;;;9.87;84.03
72855;BME280;60991;51.278;22.550;2023-04-07T07:30:59;98838.03;;;9.93;84.06
72855;BME280;60991;51.278;22.550;2023-04-07T07:32:29;98844.69;;;9.95;83.98
72855;BME280;60991;51.278;22.550;2023-04-07T07:33:59;98859.66;;;9.85;84.20
72855;BME280;60991;51.278;22.550;2023-04-07T07:35:29;98860.34;;;9.75;84.35
72855;BME280;60991;51.278;22.550;2023-04-07T07:37:00;98868.84;;;9.77;84.67
72855;BME280;60991;51.278;22.550;2023-04-07T07:38:30;98867.50;;;9.75;84.01
72855;BME280;60991;51.278;22.550;2023-04-07T07:40:00;98874.16;;;9.77;83.94
72855;BME280;60991;51.278;22.550;2023-04-07T07:41:30;98870.22;;;9.80;83.58
72855;BME280;60991;51.278;22.550;2023-04-07T07:43:01;98873.97;;;9.84;83.00
72855;BME280;60991;51.278;22.550;2023-04-07T07:44:31;98878.34;;;9.73;82.82
72855;BME280;60991;51.278;22.550;2023-04-07T07:46:02;98874.88;;;9.72;82.64
72855;BME280;60991;51.278;22.550;2023-04-07T07:47:32;98887.25;;;9.67;82.84
72855;BME280;60991;51.278;22.550;2023-04-07T07:49:02;98877.41;;;9.62;82.78
72855;BME280;60991;51.278;22.550;2023-04-07T07:50:32;98879.06;;;9.68;82.55
72855;BME280;60991;51.278;22.550;2023-04-07T07:52:03;98881.72;;;9.68;82.37
72855;BME280;60991;51.278;22.550;2023-04-07T07:53:33;98893.88;;;9.64;82.04
72855;BME280;60991;51.278;22.550;2023-04-07T07:55:03;98893.69;;;9.54;82.19
72855;BME280;60991;51.278;22.550;2023-04-07T07:56:34;98900.13;;;9.58;82.05
72855;BME280;60991;51.278;22.550;2023-04-07T07:58:04;98900.03;;;9.53;82.10
72855;BME280;60991;51.278;22.550;2023-04-07T07:59:34;98896.25;;;9.49;81.85
72855;BME280;60991;51.278;22.550;2023-04-07T08:01:05;98904.22;;;9.49;81.50
72855;BME280;60991;51.278;22.550;2023-04-07T08:02:35;98906.63;;;9.51;81.38
72855;BME280;60991;51.278;22.550;2023-04-07T08:04:05;98903.16;;;9.50;81.24